sensor_id;sensor_type;location;lat;lon;timestamp;temperature;humidity
13892;DHT22;7016;48.172;8.058;2023-11-19T00:02:23;10.70;99.90
13892;DHT22;7016;48.172;8.058;2023-11-19T00:04:49;10.70;99.90
13892;DHT22;7016;48.172;8.058;2023-11-19T00:07:15;10.80;99.90
13892;DHT22;7016;48.172;8.058;2023-11-19T00:09:41;10.70;99.90
13892;DHT22;7016;48.172;8.058;2023-11-19T00:12:07;10.80;99.90
13892;DHT22;7016;48.172;8.058;2023-11-19T00:14:33;10.80;99.90
13892;DHT22;7016;48.172;8.058;2023-11-19T00:17:00;10.70;99.90
13892;DHT22;7016;48.172;8.058;2023-11-19T00:19:26;10.70;99.90
13892;DHT22;7016;48.172;8.058;2023-11-19T00:21:52;10.70;99.90
13892;DHT22;7016;48.172;8.058;2023-11-19T00:24:18;10.60;99.90
13892;DHT22;7016;48.172;8.058;2023-11-19T00:26:44;10.60;99.90
13892;DHT22;7016;48.172;8.058;2023-11-19T00:29:10;10.60;99.90
13892;DHT22;7016;48.172;8.058;2023-11-19T00:31:36;10.60;99.90
13892;DHT22;7016;48.172;8.058;2023-11-19T00:34:02;10.60;99.90
13892;DHT22;7016;48.172;8.058;2023-11-19T00:36:28;10.60;99.90
13892;DHT22;7016;48.172;8.058;2023-11-19T00:38:54;10.60;99.90
13892;DHT22;7016;48.172;8.058;2023-11-19T00:41:20;10.70;99.90
13892;DHT22;7016;48.172;8.058;2023-11-19T00:43:46;10.70;99.90
13892;DHT22;7016;48.172;8.058;2023-11-19T00:46:12;10.70;99.90
13892;DHT22;7016;48.172;8.058;2023-11-19T00:48:39;10.80;99.90
13892;DHT22;7016;48.172;8.058;2023-11-19T00:51:05;10.80;99.90
13892;DHT22;7016;48.172;8.058;2023-11-19T00:53:31;10.80;99.90
13892;DHT22;7016;48.172;8.058;2023-11-19T00:55:58;10.80;99.90
13892;DHT22;7016;48.172;8.058;2023-11-19T00:58:23;10.80;99.90
13892;DHT22;7016;48.172;8.058;2023-11-19T01:00:49;10.90;99.90
13892;DHT22;7016;48.172;8.058;2023-11-19T01:03:15;10.90;99.90
13892;DHT22;7016;48.172;8.058;2023-11-19T01:05:43;10.90;99.90
13892;DHT22;7016;48.172;8.058;2023-11-19T01:08:10;10.90;99.90
13892;DHT22;7016;48.172;8.058;2023-11-19T01:10:38;10.90;99.90
13892;DHT22;7016;48.172;8.058;2023-11-19T01:13:04;10.90;99.90
13892;DHT22;7016;48.172;8.058;2023-11-19T01:15:32;10.90;99.90
13892;DHT22;7016;48.172;8.058;2023-11-19T01:17:57;10.90;99.90
13892;DHT22;7016;48.172;8.058;2023-11-19T01:20:23;11.00;99.90
13892;DHT22;7016;48.172;8.058;2023-11-19T01:22:49;10.90;99.90
13892;DHT22;7016;48.172;8.058;2023-11-19T01:25:15;10.90;99.90
13892;DHT22;7016;48.172;8.058;2023-11-19T01:27:41;11.00;99.90
13892;DHT22;7016;48.172;8.058;2023-11-19T01:30:08;11.00;99.90
13892;DHT22;7016;48.172;8.058;2023-11-19T01:32:35;11.00;99.90
13892;DHT22;7016;48.172;8.058;2023-11-19T01:35:03;11.00;99.90
13892;DHT22;7016;48.172;8.058;2023-11-19T01:37:29;11.00;99.90
13892;DHT22;7016;48.172;8.058;2023-11-19T01:39:55;11.00;99.90
13892;DHT22;7016;48.172;8.058;2023-11-19T01:42:20;11.00;99.90
13892;DHT22;7016;48.172;8.058;2023-11-19T01:44:59;11.00;99.90
13892;DHT22;7016;48.172;8.058;2023-11-19T01:47:28;11.00;99.90
13892;DHT22;7016;48.172;8.058;2023-11-19T01:49:56;11.00;99.90
13892;DHT22;7016;48.172;8.058;2023-11-19T01:52:22;11.00;99.90
13892;DHT22;7016;48.172;8.058;2023-11-19T01:54:49;11.10;99.90
13892;DHT22;7016;48.172;8.058;2023-11-19T01:57:15;11.10;99.90
13892;DHT22;7016;48.172;8.058;2023-11-19T01:59:41;11.10;99.90
13892;DHT22;7016;48.172;8.058;2023-11-19T02:02:07;11.10;99.90
13892;DHT22;7016;48.172;8.058;2023-11-19T02:04:33;11.10;99.90
13892;DHT22;7016;48.172;8.058;2023-11-19T02:07:00;11.10;99.90
13892;DHT22;7016;48.172;8.058;2023-11-19T02:09:26;11.10;99.90
13892;DHT22;7016;48.172;8.058;2023-11-19T02:11:53;11.10;99.90
13892;DHT22;7016;48.172;8.058;2023-11-19T02:14:23;11.10;99.90
13892;DHT22;7016;48.172;8.058;2023-11-19T02:16:49;11.10;99.90
13892;DHT22;7016;48.172;8.058;2023-11-19T02:19:15;11.10;99.90
13892;DHT22;7016;48.172;8.058;2023-11-19T02:21:41;11.20;99.90
13892;DHT22;7016;48.172;8.058;2023-11-19T02:24:08;11.20;99.90
13892;DHT22;7016;48.172;8.058;2023-11-19T02:26:41;11.10;99.90
13892;DHT22;7016;48.172;8.058;2023-11-19T02:29:09;11.10;99.90
13892;DHT22;7016;48.172;8.058;2023-11-19T02:31:35;11.10;99.90
13892;DHT22;7016;48.172;8.058;2023-11-19T02:34:01;11.10;99.90
13892;DHT22;7016;48.172;8.058;2023-11-19T02:36:28;11.20;99.90
13892;DHT22;7016;48.172;8.058;2023-11-19T02:38:54;11.20;99.90
13892;DHT22;7016;48.172;8.058;2023-11-19T02:41:20;11.10;99.90
13892;DHT22;7016;48.172;8.058;2023-11-19T02:43:46;11.10;99.90
13892;DHT22;7016;48.172;8.058;2023-11-19T02:46:14;11.10;99.90
13892;DHT22;7016;48.172;8.058;2023-11-19T02:48:39;11.10;99.90
13892;DHT22;7016;48.172;8.058;2023-11-19T02:51:06;11.10;99.90
13892;DHT22;7016;48.172;8.058;2023-11-19T02:53:35;11.10;99.90
13892;DHT22;7016;48.172;8.058;2023-11-19T02:56:02;11.10;99.90
13892;DHT22;7016;48.172;8.058;2023-11-19T02:58:37;11.10;99.90
13892;DHT22;7016;48.172;8.058;2023-11-19T03:01:04;11.10;99.90
13892;DHT22;7016;48.172;8.058;2023-11-19T03:03:38;11.10;99.90
13892;DHT22;7016;48.172;8.058;2023-11-19T03:06:06;11.10;99.90
13892;DHT22;7016;48.172;8.058;2023-11-19T03:08:35;11.10;99.90
13892;DHT22;7016;48.172;8.058;2023-11-19T03:11:01;11.10;99.90
13892;DHT22;7016;48.172;8.058;2023-11-19T03:13:27;11.10;99.90
13892;DHT22;7016;48.172;8.058;2023-11-19T03:15:53;11.20;99.90
13892;DHT22;7016;48.172;8.058;2023-11-19T03:18:21;11.10;99.90
13892;DHT22;7016;48.172;8.058;2023-11-19T03:20:47;11.20;99.90
13892;DHT22;7016;48.172;8.058;2023-11-19T03:23:13;11.20;99.90
13892;DHT22;7016;48.172;8.058;2023-11-19T03:25:38;11.10;99.90
13892;DHT22;7016;48.172;8.058;2023-11-19T03:28:04;11.10;99.90
13892;DHT22;7016;48.172;8.058;2023-11-19T03:30:30;11.10;99.90
13892;DHT22;7016;48.172;8.058;2023-11-19T03:32:57;11.10;99.90
13892;DHT22;7016;48.172;8.058;2023-11-19T03:35:24;11.20;99.90
13892;DHT22;7016;48.172;8.058;2023-11-19T03:37:51;11.20;99.90
13892;DHT22;7016;48.172;8.058;2023-11-19T03:40:18;11.10;99.90
13892;DHT22;7016;48.172;8.058;2023-11-19T03:42:45;11.20;99.90
13892;DHT22;7016;48.172;8.058;2023-11-19T03:45:11;11.20;99.90
13892;DHT22;7016;48.172;8.058;2023-11-19T03:47:37;11.20;99.90
13892;DHT22;7016;48.172;8.058;2023-11-19T03:50:04;11.30;99.90
13892;DHT22;7016;48.172;8.058;2023-11-19T03:52:30;11.30;99.90
13892;DHT22;7016;48.172;8.058;2023-11-19T03:54:56;11.30;99.90
13892;DHT22;7016;48.172;8.058;2023-11-19T03:57:23;11.30;99.90
13892;DHT22;7016;48.172;8.058;2023-11-19T03:59:49;11.30;99.90
13892;DHT22;7016;48.172;8.058;2023-11-19T04:02:15;11.30;99.90
13892;DHT22;7016;48.172;8.058;2023-11-19T04:04:42;11.30;99.90
13892;DHT22;7016;48.172;8.058;2023-11-19T04:07:08;11.30;99.90
13892;DHT22;7016;48.172;8.058;2023-11-19T04:09:33;11.30;99.90
13892;DHT22;7016;48.172;8.058;2023-11-19T04:12:00;11.40;99.90
13892;DHT22;7016;48.172;8.058;2023-11-19T04:14:26;11.40;99.90
13892;DHT22;7016;48.172;8.058;2023-11-19T04:16:52;11.40;99.90
13892;DHT22;7016;48.172;8.058;2023-11-19T04:19:19;11.40;99.90
13892;DHT22;7016;48.172;8.058;2023-11-19T04:21:46;11.40;99.90
13892;DHT22;7016;48.172;8.058;2023-11-19T04:24:12;11.40;99.90
13892;DHT22;7016;48.172;8.058;2023-11-19T04:26:43;11.40;99.90
13892;DHT22;7016;48.172;8.058;2023-11-19T04:29:12;11.50;99.90
13892;DHT22;7016;48.172;8.058;2023-11-19T04:31:38;11.50;99.90
13892;DHT22;7016;48.172;8.058;2023-11-19T04:34:05;11.60;99.90
13892;DHT22;7016;48.172;8.058;2023-11-19T04:36:32;11.60;99.90
13892;DHT22;7016;48.172;8.058;2023-11-19T04:38:59;11.60;99.90
13892;DHT22;7016;48.172;8.058;2023-11-19T04:41:25;11.60;99.90
13892;DHT22;7016;48.172;8.058;2023-11-19T04:43:53;11.70;99.90
13892;DHT22;7016;48.172;8.058;2023-11-19T04:46:19;11.60;99.90
13892;DHT22;7016;48.172;8.058;2023-11-19T04:48:45;11.70;99.90
13892;DHT22;7016;48.172;8.058;2023-11-19T04:51:11;11.70;99.90
13892;DHT22;7016;48.172;8.058;2023-11-19T04:53:36;11.70;99.90
13892;DHT22;7016;48.172;8.058;2023-11-19T04:56:08;11.70;99.90
13892;DHT22;7016;48.172;8.058;2023-11-19T04:58:34;11.70;99.90
13892;DHT22;7016;48.172;8.058;2023-11-19T05:01:05;11.80;99.90
13892;DHT22;7016;48.172;8.058;2023-11-19T05:03:31;11.70;99.90
13892;DHT22;7016;48.172;8.058;2023-11-19T05:05:57;11.80;99.90
13892;DHT22;7016;48.172;8.058;2023-11-19T05:08:23;11.70;99.90
13892;DHT22;7016;48.172;8.058;2023-11-19T05:10:49;11.80;99.90
13892;DHT22;7016;48.172;8.058;2023-11-19T05:13:15;11.80;99.90
13892;DHT22;7016;48.172;8.058;2023-11-19T05:15:41;11.80;99.90
13892;DHT22;7016;48.172;8.058;2023-11-19T05:18:06;11.80;99.90
13892;DHT22;7016;48.172;8.058;2023-11-19T05:20:32;11.80;99.90
13892;DHT22;7016;48.172;8.058;2023-11-19T05:22:58;11.80;99.90
13892;DHT22;7016;48.172;8.058;2023-11-19T05:25:26;11.80;99.90
13892;DHT22;7016;48.172;8.058;2023-11-19T05:27:52;11.80;99.90
13892;DHT22;7016;48.172;8.058;2023-11-19T05:30:18;11.80;99.90
13892;DHT22;7016;48.172;8.058;2023-11-19T05:32:44;11.90;99.90
13892;DHT22;7016;48.172;8.058;2023-11-19T05:35:10;11.90;99.90
13892;DHT22;7016;48.172;8.058;2023-11-19T05:37:36;11.90;99.90
13892;DHT22;7016;48.172;8.058;2023-11-19T05:40:02;11.90;99.90
13892;DHT22;7016;48.172;8.058;2023-11-19T05:42:29;11.90;99.90
13892;DHT22;7016;48.172;8.058;2023-11-19T05:44:55;11.90;99.90
13892;DHT22;7016;48.172;8.058;2023-11-19T05:47:21;11.90;99.90
13892;DHT22;7016;48.172;8.058;2023-11-19T05:49:47;11.90;99.90
13892;DHT22;7016;48.172;8.058;2023-11-19T05:52:13;11.90;99.90
13892;DHT22;7016;48.172;8.058;2023-11-19T05:54:38;12.00;99.90
13892;DHT22;7016;48.172;8.058;2023-11-19T05:57:06;12.00;99.90
13892;DHT22;7016;48.172;8.058;2023-11-19T05:59:35;12.00;99.90
13892;DHT22;7016;48.172;8.058;2023-11-19T06:02:02;12.00;99.90
13892;DHT22;7016;48.172;8.058;2023-11-19T06:04:28;12.00;99.90
13892;DHT22;7016;48.172;8.058;2023-11-19T06:06:54;12.00;99.90
13892;DHT22;7016;48.172;8.058;2023-11-19T06:09:21;12.00;99.90
13892;DHT22;7016;48.172;8.058;2023-11-19T06:11:51;12.00;99.90
13892;DHT22;7016;48.172;8.058;2023-11-19T06:14:18;12.00;99.90
13892;DHT22;7016;48.172;8.058;2023-11-19T06:16:44;12.00;99.90
13892;DHT22;7016;48.172;8.058;2023-11-19T06:19:10;12.00;99.90
13892;DHT22;7016;48.172;8.058;2023-11-19T06:21:37;12.10;99.90
13892;DHT22;7016;48.172;8.058;2023-11-19T06:24:03;12.10;99.90
13892;DHT22;7016;48.172;8.058;2023-11-19T06:26:29;12.10;99.90
13892;DHT22;7016;48.172;8.058;2023-11-19T06:28:54;12.10;99.90
13892;DHT22;7016;48.172;8.058;2023-11-19T06:31:20;12.10;99.90
13892;DHT22;7016;48.172;8.058;2023-11-19T06:33:46;12.10;99.90
13892;DHT22;7016;48.172;8.058;2023-11-19T06:36:14;12.10;99.90
13892;DHT22;7016;48.172;8.058;2023-11-19T06:38:42;12.10;99.90
13892;DHT22;7016;48.172;8.058;2023-11-19T06:41:08;12.20;99.90
13892;DHT22;7016;48.172;8.058;2023-11-19T06:43:35;12.20;99.90
13892;DHT22;7016;48.172;8.058;2023-11-19T06:46:02;12.20;99.90
13892;DHT22;7016;48.172;8.058;2023-11-19T06:48:28;12.20;99.90
13892;DHT22;7016;48.172;8.058;2023-11-19T06:50:53;12.20;99.90
13892;DHT22;7016;48.172;8.058;2023-11-19T06:53:19;12.20;99.90
13892;DHT22;7016;48.172;8.058;2023-11-19T06:55:45;12.20;99.90
13892;DHT22;7016;48.172;8.058;2023-11-19T06:58:11;12.20;99.90
13892;DHT22;7016;48.172;8.058;2023-11-19T07:00:37;12.30;99.90
13892;DHT22;7016;48.172;8.058;2023-11-19T07:03:03;12.30;99.90
13892;DHT22;7016;48.172;8.058;2023-11-19T07:05:29;12.30;99.90
13892;DHT22;7016;48.172;8.058;2023-11-19T07:07:55;12.40;99.90
13892;DHT22;7016;48.172;8.058;2023-11-19T07:10:21;12.30;99.90
13892;DHT22;7016;48.172;8.058;2023-11-19T07:12:47;12.40;99.90
13892;DHT22;7016;48.172;8.058;2023-11-19T07:15:13;12.40;99.90
13892;DHT22;7016;48.172;8.058;2023-11-19T07:17:39;12.40;99.90
13892;DHT22;7016;48.172;8.058;2023-11-19T07:20:05;12.40;99.90
13892;DHT22;7016;48.172;8.058;2023-11-19T07:22:31;12.40;99.90
13892;DHT22;7016;48.172;8.058;2023-11-19T07:24:57;12.50;99.90
13892;DHT22;7016;48.172;8.058;2023-11-19T07:27:23;12.40;99.90
13892;DHT22;7016;48.172;8.058;2023-11-19T07:29:49;12.50;99.90
13892;DHT22;7016;48.172;8.058;2023-11-19T07:32:15;12.50;99.90
13892;DHT22;7016;48.172;8.058;2023-11-19T07:34:41;12.50;99.90
13892;DHT22;7016;48.172;8.058;2023-11-19T07:37:06;12.50;99.90
13892;DHT22;7016;48.172;8.058;2023-11-19T07:39:32;12.50;99.90
13892;DHT22;7016;48.172;8.058;2023-11-19T07:41:58;12.60;99.90
13892;DHT22;7016;48.172;8.058;2023-11-19T07:44:24;12.50;99.90
13892;DHT22;7016;48.172;8.058;2023-11-19T07:46:50;12.50;99.90
13892;DHT22;7016;48.172;8.058;2023-11-19T07:49:15;12.60;99.90
13892;DHT22;7016;48.172;8.058;2023-11-19T07:51:41;12.60;99.90
13892;DHT22;7016;48.172;8.058;2023-11-19T07:54:07;12.60;99.90
13892;DHT22;7016;48.172;8.058;2023-11-19T07:56:35;12.60;99.90
13892;DHT22;7016;48.172;8.058;2023-11-19T07:59:02;12.60;99.90
13892;DHT22;7016;48.172;8.058;2023-11-19T08:01:28;12.70;99.90
13892;DHT22;7016;48.172;8.058;2023-11-19T08:03:53;12.70;99.90
13892;DHT22;7016;48.172;8.058;2023-11-19T08:06:19;12.70;99.90
13892;DHT22;7016;48.172;8.058;2023-11-19T08:08:45;12.70;99.90
13892;DHT22;7016;48.172;8.058;2023-11-19T08:11:11;12.70;99.90
13892;DHT22;7016;48.172;8.058;2023-11-19T08:13:36;12.70;99.90
13892;DHT22;7016;48.172;8.058;2023-11-19T08:16:02;12.70;99.90
13892;DHT22;7016;48.172;8.058;2023-11-19T08:18:28;12.70;99.90
13892;DHT22;7016;48.172;8.058;2023-11-19T08:20:53;12.70;99.90
13892;DHT22;7016;48.172;8.058;2023-11-19T08:23:20;12.80;99.90
13892;DHT22;7016;48.172;8.058;2023-11-19T08:25:46;12.80;99.90
13892;DHT22;7016;48.172;8.058;2023-11-19T08:28:12;12.80;99.90
13892;DHT22;7016;48.172;8.058;2023-11-19T08:30:38;12.80;99.90
13892;DHT22;7016;48.172;8.058;2023-11-19T08:33:04;12.80;99.90
13892;DHT22;7016;48.172;8.058;2023-11-19T08:35:31;12.80;99.90
13892;DHT22;7016;48.172;8.058;2023-11-19T08:37:57;12.80;99.90
13892;DHT22;7016;48.172;8.058;2023-11-19T08:40:25;12.80;99.90
13892;DHT22;7016;48.172;8.058;2023-11-19T08:42:52;12.80;99.90
13892;DHT22;7016;48.172;8.058;2023-11-19T08:45:18;12.90;99.90
13892;DHT22;7016;48.172;8.058;2023-11-19T08:47:44;12.90;99.90
13892;DHT22;7016;48.172;8.058;2023-11-19T08:50:11;12.80;99.90
13892;DHT22;7016;48.172;8.058;2023-11-19T08:52:37;12.90;99.90
13892;DHT22;7016;48.172;8.058;2023-11-19T08:55:03;12.90;99.90
13892;DHT22;7016;48.172;8.058;2023-11-19T08:57:34;12.90;99.90
13892;DHT22;7016;48.172;8.058;2023-11-19T08:59:59;12.90;99.90
13892;DHT22;7016;48.172;8.058;2023-11-19T09:02:25;12.90;99.90
13892;DHT22;7016;48.172;8.058;2023-11-19T09:04:51;13.00;99.90
13892;DHT22;7016;48.172;8.058;2023-11-19T09:07:17;13.00;99.90
13892;DHT22;7016;48.172;8.058;2023-11-19T09:09:42;13.00;99.90
13892;DHT22;7016;48.172;8.058;2023-11-19T09:12:08;13.00;99.90
13892;DHT22;7016;48.172;8.058;2023-11-19T09:14:34;13.10;99.90
13892;DHT22;7016;48.172;8.058;2023-11-19T09:17:00;13.10;99.90
13892;DHT22;7016;48.172;8.058;2023-11-19T09:19:26;13.10;99.90
13892;DHT22;7016;48.172;8.058;2023-11-19T09:21:53;13.10;99.90
13892;DHT22;7016;48.172;8.058;2023-11-19T09:24:18;13.10;99.90
13892;DHT22;7016;48.172;8.058;2023-11-19T09:26:44;13.10;99.90
13892;DHT22;7016;48.172;8.058;2023-11-19T09:29:10;13.10;99.90
13892;DHT22;7016;48.172;8.058;2023-11-19T09:31:38;13.10;99.90
13892;DHT22;7016;48.172;8.058;2023-11-19T09:34:04;13.10;99.90
13892;DHT22;7016;48.172;8.058;2023-11-19T09:36:30;13.10;99.90
13892;DHT22;7016;48.172;8.058;2023-11-19T09:38:56;13.10;99.90
13892;DHT22;7016;48.172;8.058;2023-11-19T09:41:23;13.10;99.90
13892;DHT22;7016;48.172;8.058;2023-11-19T09:43:50;13.10;99.90
13892;DHT22;7016;48.172;8.058;2023-11-19T09:46:16;13.10;99.90
13892;DHT22;7016;48.172;8.058;2023-11-19T09:48:43;13.10;99.90
13892;DHT22;7016;48.172;8.058;2023-11-19T09:51:10;13.10;99.90
13892;DHT22;7016;48.172;8.058;2023-11-19T09:53:37;13.10;99.90
13892;DHT22;7016;48.172;8.058;2023-11-19T09:56:03;13.10;99.90
13892;DHT22;7016;48.172;8.058;2023-11-19T09:58:30;13.10;99.90
13892;DHT22;7016;48.172;8.058;2023-11-19T10:00:57;13.10;99.90
13892;DHT22;7016;48.172;8.058;2023-11-19T10:03:26;13.10;99.90
13892;DHT22;7016;48.172;8.058;2023-11-19T10:05:55;13.10;99.90
13892;DHT22;7016;48.172;8.058;2023-11-19T10:08:22;13.10;99.90
13892;DHT22;7016;48.172;8.058;2023-11-19T10:10:48;13.10;99.90
13892;DHT22;7016;48.172;8.058;2023-11-19T10:13:14;13.00;99.90
13892;DHT22;7016;48.172;8.058;2023-11-19T10:15:40;13.00;99.90
13892;DHT22;7016;48.172;8.058;2023-11-19T10:18:06;13.00;99.90
13892;DHT22;7016;48.172;8.058;2023-11-19T10:20:41;12.90;99.90
13892;DHT22;7016;48.172;8.058;2023-11-19T10:23:06;13.00;99.90
13892;DHT22;7016;48.172;8.058;2023-11-19T10:25:33;13.00;99.90
13892;DHT22;7016;48.172;8.058;2023-11-19T10:27:59;13.00;99.90
13892;DHT22;7016;48.172;8.058;2023-11-19T10:30:30;13.10;99.90
13892;DHT22;7016;48.172;8.058;2023-11-19T10:33:13;13.10;99.90
13892;DHT22;7016;48.172;8.058;2023-11-19T10:35:52;13.00;99.90
13892;DHT22;7016;48.172;8.058;2023-11-19T10:38:27;13.00;99.90
13892;DHT22;7016;48.172;8.058;2023-11-19T10:40:54;13.00;99.90
13892;DHT22;7016;48.172;8.058;2023-11-19T10:43:21;13.00;99.90
13892;DHT22;7016;48.172;8.058;2023-11-19T10:45:48;13.00;99.90
13892;DHT22;7016;48.172;8.058;2023-11-19T10:48:14;13.10;99.90
13892;DHT22;7016;48.172;8.058;2023-11-19T10:50:42;13.10;99.90
13892;DHT22;7016;48.172;8.058;2023-11-19T10:53:10;13.00;99.90
13892;DHT22;7016;48.172;8.058;2023-11-19T10:55:37;13.10;99.90
13892;DHT22;7016;48.172;8.058;2023-11-19T10:58:10;13.10;99.90
13892;DHT22;7016;48.172;8.058;2023-11-19T11:00:57;13.20;99.90
13892;DHT22;7016;48.172;8.058;2023-11-19T11:03:25;13.20;99.90
13892;DHT22;7016;48.172;8.058;2023-11-19T11:05:53;13.30;99.90
13892;DHT22;7016;48.172;8.058;2023-11-19T11:08:20;13.20;99.90
13892;DHT22;7016;48.172;8.058;2023-11-19T11:10:52;13.30;99.90
13892;DHT22;7016;48.172;8.058;2023-11-19T11:13:18;13.30;99.90
13892;DHT22;7016;48.172;8.058;2023-11-19T11:15:45;14.10;99.90
13892;DHT22;7016;48.172;8.058;2023-11-19T11:18:13;13.40;99.90
13892;DHT22;7016;48.172;8.058;2023-11-19T11:20:39;13.40;99.90
13892;DHT22;7016;48.172;8.058;2023-11-19T11:26:18;13.40;99.90
13892;DHT22;7016;48.172;8.058;2023-11-19T11:29:09;13.40;99.90
13892;DHT22;7016;48.172;8.058;2023-11-19T11:31:49;13.40;99.90
13892;DHT22;7016;48.172;8.058;2023-11-19T11:37:24;13.50;99.90
13892;DHT22;7016;48.172;8.058;2023-11-19T11:39:51;13.50;99.90
13892;DHT22;7016;48.172;8.058;2023-11-19T11:45:05;13.50;99.90
13892;DHT22;7016;48.172;8.058;2023-11-19T11:50:14;13.50;99.90
13892;DHT22;7016;48.172;8.058;2023-11-19T11:55:33;13.50;99.90
13892;DHT22;7016;48.172;8.058;2023-11-19T11:58:00;13.50;99.90
13892;DHT22;7016;48.172;8.058;2023-11-19T12:00:41;13.50;99.90
13892;DHT22;7016;48.172;8.058;2023-11-19T12:03:11;13.50;99.90
13892;DHT22;7016;48.172;8.058;2023-11-19T12:05:46;13.50;99.90
13892;DHT22;7016;48.172;8.058;2023-11-19T12:08:13;13.50;99.90
13892;DHT22;7016;48.172;8.058;2023-11-19T12:10:49;13.50;99.90
13892;DHT22;7016;48.172;8.058;2023-11-19T12:13:15;13.40;99.90
13892;DHT22;7016;48.172;8.058;2023-11-19T12:16:07;13.50;99.90
13892;DHT22;7016;48.172;8.058;2023-11-19T12:18:33;13.50;99.90
13892;DHT22;7016;48.172;8.058;2023-11-19T12:21:02;13.50;99.90
13892;DHT22;7016;48.172;8.058;2023-11-19T12:23:31;13.50;99.90
13892;DHT22;7016;48.172;8.058;2023-11-19T12:25:58;13.40;99.90
13892;DHT22;7016;48.172;8.058;2023-11-19T12:28:24;13.40;99.90
13892;DHT22;7016;48.172;8.058;2023-11-19T12:30:52;13.30;99.90
13892;DHT22;7016;48.172;8.058;2023-11-19T12:33:19;15.60;99.90
13892;DHT22;7016;48.172;8.058;2023-11-19T12:35:46;13.40;99.90
13892;DHT22;7016;48.172;8.058;2023-11-19T12:38:25;13.40;99.90
13892;DHT22;7016;48.172;8.058;2023-11-19T12:41:07;13.40;99.90
13892;DHT22;7016;48.172;8.058;2023-11-19T12:43:33;13.50;99.90
13892;DHT22;7016;48.172;8.058;2023-11-19T12:46:24;13.50;99.90
13892;DHT22;7016;48.172;8.058;2023-11-19T12:48:51;13.50;99.90
13892;DHT22;7016;48.172;8.058;2023-11-19T12:51:17;13.50;99.90
13892;DHT22;7016;48.172;8.058;2023-11-19T12:53:50;13.50;99.90
13892;DHT22;7016;48.172;8.058;2023-11-19T12:56:16;13.40;99.90
13892;DHT22;7016;48.172;8.058;2023-11-19T12:58:42;13.50;99.90
13892;DHT22;7016;48.172;8.058;2023-11-19T13:01:08;13.50;99.90
13892;DHT22;7016;48.172;8.058;2023-11-19T13:03:37;13.60;99.90
13892;DHT22;7016;48.172;8.058;2023-11-19T13:06:08;13.50;99.90
13892;DHT22;7016;48.172;8.058;2023-11-19T13:08:42;13.50;99.90
13892;DHT22;7016;48.172;8.058;2023-11-19T13:11:09;13.60;99.90
13892;DHT22;7016;48.172;8.058;2023-11-19T13:14:13;13.60;99.90
13892;DHT22;7016;48.172;8.058;2023-11-19T13:16:39;13.70;99.90
13892;DHT22;7016;48.172;8.058;2023-11-19T13:19:05;13.70;99.90
13892;DHT22;7016;48.172;8.058;2023-11-19T13:21:31;13.70;99.90
13892;DHT22;7016;48.172;8.058;2023-11-19T13:23:57;13.70;99.90
13892;DHT22;7016;48.172;8.058;2023-11-19T13:26:23;13.70;99.90
13892;DHT22;7016;48.172;8.058;2023-11-19T13:28:48;13.70;99.90
13892;DHT22;7016;48.172;8.058;2023-11-19T13:31:14;13.70;99.90
13892;DHT22;7016;48.172;8.058;2023-11-19T13:33:40;13.80;99.90
13892;DHT22;7016;48.172;8.058;2023-11-19T13:36:06;13.80;99.90
13892;DHT22;7016;48.172;8.058;2023-11-19T13:38:36;13.80;99.90
13892;DHT22;7016;48.172;8.058;2023-11-19T13:41:03;13.80;99.90
13892;DHT22;7016;48.172;8.058;2023-11-19T13:43:30;13.80;99.90
13892;DHT22;7016;48.172;8.058;2023-11-19T13:45:56;13.80;99.90
13892;DHT22;7016;48.172;8.058;2023-11-19T13:48:23;13.80;99.90
13892;DHT22;7016;48.172;8.058;2023-11-19T13:50:50;13.90;99.90
13892;DHT22;7016;48.172;8.058;2023-11-19T13:53:16;13.80;99.90
13892;DHT22;7016;48.172;8.058;2023-11-19T13:55:42;13.80;99.90
13892;DHT22;7016;48.172;8.058;2023-11-19T13:58:08;13.90;99.90
13892;DHT22;7016;48.172;8.058;2023-11-19T14:00:33;13.90;99.90
13892;DHT22;7016;48.172;8.058;2023-11-19T14:02:59;13.90;99.90
13892;DHT22;7016;48.172;8.058;2023-11-19T14:05:25;13.90;99.90
13892;DHT22;7016;48.172;8.058;2023-11-19T14:07:50;13.90;99.90
13892;DHT22;7016;48.172;8.058;2023-11-19T14:10:17;13.80;99.90
13892;DHT22;7016;48.172;8.058;2023-11-19T14:12:43;13.80;99.90
13892;DHT22;7016;48.172;8.058;2023-11-19T14:15:09;13.90;99.90
13892;DHT22;7016;48.172;8.058;2023-11-19T14:17:38;13.90;99.90
13892;DHT22;7016;48.172;8.058;2023-11-19T14:20:05;14.00;99.90
13892;DHT22;7016;48.172;8.058;2023-11-19T14:22:44;14.00;99.90
13892;DHT22;7016;48.172;8.058;2023-11-19T14:25:12;14.00;99.90
13892;DHT22;7016;48.172;8.058;2023-11-19T14:27:38;14.00;99.90
13892;DHT22;7016;48.172;8.058;2023-11-19T14:30:10;14.00;99.90
13892;DHT22;7016;48.172;8.058;2023-11-19T14:32:39;14.00;99.90
13892;DHT22;7016;48.172;8.058;2023-11-19T14:35:06;14.00;99.90
13892;DHT22;7016;48.172;8.058;2023-11-19T14:37:32;14.00;99.90
13892;DHT22;7016;48.172;8.058;2023-11-19T14:39:58;14.00;99.90
13892;DHT22;7016;48.172;8.058;2023-11-19T14:42:24;14.00;99.90
13892;DHT22;7016;48.172;8.058;2023-11-19T14:44:51;14.00;99.90
13892;DHT22;7016;48.172;8.058;2023-11-19T14:47:20;14.00;99.90
13892;DHT22;7016;48.172;8.058;2023-11-19T14:49:46;14.00;99.90
13892;DHT22;7016;48.172;8.058;2023-11-19T14:52:12;13.90;99.90
13892;DHT22;7016;48.172;8.058;2023-11-19T14:54:38;13.90;99.90
13892;DHT22;7016;48.172;8.058;2023-11-19T14:57:07;13.90;99.90
13892;DHT22;7016;48.172;8.058;2023-11-19T14:59:36;13.90;99.90
13892;DHT22;7016;48.172;8.058;2023-11-19T15:02:03;13.90;99.90
13892;DHT22;7016;48.172;8.058;2023-11-19T15:04:29;13.90;99.90
13892;DHT22;7016;48.172;8.058;2023-11-19T15:06:59;13.90;99.90
13892;DHT22;7016;48.172;8.058;2023-11-19T15:09:25;13.80;99.90
13892;DHT22;7016;48.172;8.058;2023-11-19T15:11:53;13.80;99.90
13892;DHT22;7016;48.172;8.058;2023-11-19T15:14:19;13.80;99.90
13892;DHT22;7016;48.172;8.058;2023-11-19T15:16:45;13.80;99.90
13892;DHT22;7016;48.172;8.058;2023-11-19T15:19:12;13.80;99.90
13892;DHT22;7016;48.172;8.058;2023-11-19T15:21:40;13.80;99.90
13892;DHT22;7016;48.172;8.058;2023-11-19T15:24:06;13.70;99.90
13892;DHT22;7016;48.172;8.058;2023-11-19T15:26:34;13.70;99.90
13892;DHT22;7016;48.172;8.058;2023-11-19T15:29:01;13.70;99.90
13892;DHT22;7016;48.172;8.058;2023-11-19T15:31:26;13.70;99.90
13892;DHT22;7016;48.172;8.058;2023-11-19T15:36:18;13.70;99.90
13892;DHT22;7016;48.172;8.058;2023-11-19T15:38:44;13.70;99.90
13892;DHT22;7016;48.172;8.058;2023-11-19T15:41:10;13.70;99.90
13892;DHT22;7016;48.172;8.058;2023-11-19T15:43:35;13.60;99.90
13892;DHT22;7016;48.172;8.058;2023-11-19T15:46:05;13.60;99.90
13892;DHT22;7016;48.172;8.058;2023-11-19T15:48:30;13.60;99.90
13892;DHT22;7016;48.172;8.058;2023-11-19T15:50:56;13.60;99.90
13892;DHT22;7016;48.172;8.058;2023-11-19T15:53:22;13.60;99.90
13892;DHT22;7016;48.172;8.058;2023-11-19T15:55:47;13.50;99.90
13892;DHT22;7016;48.172;8.058;2023-11-19T15:58:13;13.50;99.90
13892;DHT22;7016;48.172;8.058;2023-11-19T16:00:39;13.50;99.90
13892;DHT22;7016;48.172;8.058;2023-11-19T16:03:11;13.40;99.90